Terminal Aerodrome Forecast
Issued by NWS

Home | Current Version | Previous Version | Text Only | Print | Product List | Glossary On
Versions: 1 2 3 4 5 6 7 8 9 10 11 12
000
FTUS45 KRIW 031100
TAFWRL
TAF
KWRL 031137Z 0312/0412 32008KT P6SM SCT090
     FM031800 02007KT P6SM SCT080 BKN150
     FM040000 04006KT P6SM VCSH SCT070 BKN100
     FM040800 VRB05KT P6SM SCT060 BKN120=

USA.gov is the U.S. government's official web portal to all federal, state and local government web resources and services.